createdAt,value
2022-09-05T00:00:23.491Z,2.13
2022-09-05T00:02:59.505Z,1.92
2022-09-05T00:06:01.751Z,2.30
2022-09-05T00:08:52.529Z,1.92
2022-09-05T00:11:41.804Z,2.38
2022-09-05T00:15:17.796Z,1.92
2022-09-05T00:19:17.768Z,2.33
2022-09-05T00:24:19.420Z,2.33
2022-09-05T00:24:25.303Z,2.03
2022-09-05T00:26:34.659Z,2.00
2022-09-05T00:29:20.445Z,2.42
2022-09-05T00:32:12.950Z,2.20
2022-09-05T00:34:58.457Z,2.30
2022-09-05T00:37:32.487Z,2.40
2022-09-05T00:40:18.563Z,2.33
2022-09-05T00:42:50.277Z,2.40
2022-09-05T00:45:25.295Z,2.20
2022-09-05T00:48:00.542Z,2.80
2022-09-05T00:50:35.346Z,2.65
2022-09-05T00:53:10.105Z,2.58
2022-09-05T00:55:42.999Z,2.33
2022-09-05T00:58:34.149Z,2.78
2022-09-05T01:01:09.608Z,2.42
2022-09-05T01:04:05.877Z,2.55
2022-09-05T01:06:52.729Z,2.03
2022-09-05T01:09:34.874Z,2.30
2022-09-05T01:12:15.676Z,2.15
2022-09-05T01:14:59.643Z,2.75
2022-09-05T01:17:49.750Z,2.50
2022-09-05T01:20:31.448Z,2.53
2022-09-05T01:23:29.312Z,2.28
2022-09-05T01:26:21.712Z,2.50
2022-09-05T01:29:17.658Z,2.05
2022-09-05T01:32:00.127Z,2.22
2022-09-05T01:34:39.791Z,2.40
2022-09-05T01:37:24.933Z,1.92
2022-09-05T01:40:16.883Z,2.40
2022-09-05T01:43:03.247Z,2.38
2022-09-05T01:45:47.604Z,2.40
2022-09-05T01:48:30.590Z,1.95
2022-09-05T01:51:29.079Z,2.40
2022-09-05T01:54:21.332Z,2.30
2022-09-05T01:57:03.963Z,2.05
2022-09-05T01:59:46.050Z,2.88
2022-09-05T02:02:37.386Z,2.60
2022-09-05T02:05:47.873Z,2.42
2022-09-05T02:08:35.547Z,2.33
2022-09-05T02:11:06.969Z,2.80
2022-09-05T02:13:49.728Z,2.53
2022-09-05T02:16:27.039Z,2.83
2022-09-05T02:19:01.537Z,2.25
2022-09-05T02:21:57.236Z,2.78
2022-09-05T02:24:31.056Z,2.50
2022-09-05T02:27:38.881Z,2.50
2022-09-05T02:30:19.212Z,2.60
2022-09-05T02:32:59.635Z,2.50
2022-09-05T02:35:33.090Z,2.90
2022-09-05T02:40:12.558Z,2.70
2022-09-05T02:45:06.291Z,2.72
2022-09-05T02:45:19.648Z,2.72
2022-09-05T02:46:50.986Z,2.78
2022-09-05T02:50:58.255Z,2.50
2022-09-05T02:57:28.304Z,2.60
2022-09-05T02:57:35.090Z,2.40
2022-09-05T02:58:22.023Z,2.55
2022-09-05T03:00:55.405Z,2.75
2022-09-05T03:03:30.780Z,2.65
2022-09-05T03:06:02.927Z,3.00
2022-09-05T03:08:50.381Z,2.90
2022-09-05T03:12:28.214Z,2.50
2022-09-05T03:15:46.417Z,3.13
2022-09-05T03:18:41.138Z,2.97
2022-09-05T03:21:39.564Z,3.03
2022-09-05T03:24:41.061Z,2.90
2022-09-05T03:27:45.205Z,2.80
2022-09-05T03:30:15.534Z,2.88
2022-09-05T03:33:09.311Z,2.97
2022-09-05T03:36:05.040Z,2.97
2022-09-05T03:39:02.013Z,2.80
2022-09-05T03:41:44.241Z,2.88
2022-09-05T03:44:23.567Z,2.60
2022-09-05T03:47:22.856Z,2.50
2022-09-05T03:57:04.973Z,2.67
2022-09-05T03:57:11.315Z,2.63
2022-09-05T03:57:26.847Z,3.10
2022-09-05T03:59:32.054Z,3.40
2022-09-05T04:04:00.312Z,3.00
2022-09-05T04:08:13.586Z,3.08
2022-09-05T04:08:24.462Z,3.30
2022-09-05T04:10:54.546Z,3.25
2022-09-05T04:13:26.855Z,3.03
2022-09-05T04:16:07.912Z,3.00
2022-09-05T04:18:39.433Z,3.13
2022-09-05T04:21:13.241Z,3.10
2022-09-05T04:23:53.099Z,3.10
2022-09-05T04:26:39.693Z,3.10
2022-09-05T04:29:16.845Z,3.30
2022-09-05T04:32:00.963Z,3.03
2022-09-05T04:34:52.084Z,3.13
2022-09-05T04:37:47.685Z,3.10
2022-09-05T04:40:37.852Z,3.40
2022-09-05T04:43:07.695Z,2.75
2022-09-05T04:45:40.844Z,3.38
2022-09-05T04:48:14.387Z,2.92
2022-09-05T04:51:05.955Z,3.25
2022-09-05T04:53:45.064Z,3.70
2022-09-05T04:56:18.568Z,3.42
2022-09-05T05:00:54.307Z,2.88
2022-09-05T05:06:01.154Z,3.58
2022-09-05T05:06:16.460Z,3.35
2022-09-05T05:07:27.222Z,3.28
2022-09-05T05:10:12.062Z,3.25
2022-09-05T05:18:01.918Z,3.05
2022-09-05T05:18:08.472Z,3.42
2022-09-05T05:18:57.849Z,3.60
2022-09-05T05:21:36.487Z,3.00
2022-09-05T05:24:10.672Z,3.60
2022-09-05T05:26:56.735Z,3.00
2022-09-05T05:29:33.559Z,3.40
2022-09-05T05:32:06.288Z,3.30
2022-09-05T05:34:39.563Z,3.50
2022-09-05T05:37:18.177Z,3.60
2022-09-05T05:39:49.998Z,3.95
2022-09-05T05:42:22.777Z,3.60
2022-09-05T05:44:53.904Z,3.22
2022-09-05T05:47:29.848Z,3.60
2022-09-05T05:50:03.971Z,3.22
2022-09-05T05:52:42.176Z,3.75
2022-09-05T05:55:50.396Z,3.58
2022-09-05T05:58:32.605Z,3.20
2022-09-05T06:01:42.864Z,3.45
2022-09-05T06:04:52.010Z,3.25
2022-09-05T06:07:33.371Z,3.28
2022-09-05T06:14:58.875Z,2.92
2022-09-05T06:15:05.252Z,3.67
2022-09-05T06:17:19.945Z,3.33
2022-09-05T06:22:04.124Z,3.30
2022-09-05T06:23:54.873Z,3.42
2022-09-05T06:26:49.217Z,3.53
2022-09-05T06:29:33.944Z,3.25
2022-09-05T06:32:22.034Z,3.22
2022-09-05T06:35:32.463Z,2.97
2022-09-05T06:38:12.313Z,3.53
2022-09-05T06:40:49.735Z,3.50
2022-09-05T06:43:32.584Z,3.53
2022-09-05T06:46:12.942Z,3.25
2022-09-05T06:49:30.563Z,3.33
2022-09-05T06:52:06.843Z,3.88
2022-09-05T06:55:36.900Z,3.53
2022-09-05T06:58:41.880Z,3.25
2022-09-05T07:01:12.148Z,3.45
2022-09-05T07:03:59.815Z,3.13
2022-09-05T07:07:06.436Z,4.10
2022-09-05T07:09:57.331Z,3.50
2022-09-05T07:12:30.449Z,3.55
2022-09-05T07:15:13.973Z,3.40
2022-09-05T07:18:09.438Z,3.67
2022-09-05T07:21:15.885Z,3.58
2022-09-05T07:24:06.979Z,3.58
2022-09-05T07:26:51.880Z,3.35
2022-09-05T07:29:28.005Z,4.03
2022-09-05T07:32:00.517Z,3.45
2022-09-05T07:34:30.328Z,3.63
2022-09-05T07:37:14.915Z,3.85
2022-09-05T07:39:47.547Z,3.45
2022-09-05T07:42:18.926Z,3.65
2022-09-05T07:44:54.037Z,3.40
2022-09-05T07:47:28.228Z,3.22
2022-09-05T07:51:03.423Z,3.58
2022-09-05T07:56:52.989Z,3.70
2022-09-05T07:57:13.175Z,3.60
2022-09-05T07:58:41.285Z,3.95
2022-09-05T08:01:12.648Z,3.55
2022-09-05T08:03:43.184Z,3.72
2022-09-05T08:07:14.389Z,4.18
2022-09-05T08:10:08.564Z,3.70
2022-09-05T08:12:09.987Z,3.70
2022-09-05T08:15:03.803Z,3.40
2022-09-05T08:17:34.319Z,3.80
2022-09-05T08:20:14.408Z,3.53
2022-09-05T08:22:52.204Z,3.95
2022-09-05T08:25:25.537Z,3.63
2022-09-05T08:28:06.482Z,3.58
2022-09-05T08:30:44.391Z,3.53
2022-09-05T08:33:16.272Z,3.70
2022-09-05T08:35:49.743Z,3.13
2022-09-05T08:38:26.172Z,3.67
2022-09-05T08:41:14.182Z,3.58
2022-09-05T08:46:37.182Z,3.50
2022-09-05T08:46:50.771Z,4.03
2022-09-05T08:49:44.032Z,3.55
2022-09-05T08:52:27.780Z,3.78
2022-09-05T08:55:07.476Z,4.20
2022-09-05T08:58:01.819Z,3.90
2022-09-05T09:00:36.000Z,4.85
2022-09-05T09:03:13.479Z,3.40
2022-09-05T09:06:16.985Z,6.40
2022-09-05T09:09:09.320Z,3.95
2022-09-05T09:11:39.961Z,3.05
2022-09-05T09:14:31.947Z,4.35
2022-09-05T09:17:06.695Z,3.35
2022-09-05T09:19:48.251Z,3.28
2022-09-05T09:22:23.275Z,4.85
2022-09-05T09:25:14.887Z,3.83
2022-09-05T09:28:46.440Z,3.38
2022-09-05T09:30:58.315Z,3.25
2022-09-05T09:33:37.853Z,3.70
2022-09-05T09:36:17.133Z,3.20
2022-09-05T09:39:13.114Z,3.75
2022-09-05T09:42:07.847Z,3.50
2022-09-05T09:45:27.936Z,3.45
2022-09-05T09:48:32.372Z,3.42
2022-09-05T09:51:22.693Z,3.67
2022-09-05T09:54:08.447Z,3.88
2022-09-05T09:57:06.046Z,3.42
2022-09-05T09:59:59.381Z,3.65
2022-09-05T10:09:23.204Z,3.92
2022-09-05T10:10:46.651Z,4.03
2022-09-05T10:10:58.128Z,3.97
2022-09-05T10:12:31.906Z,3.97
2022-09-05T10:15:30.466Z,3.40
2022-09-05T10:18:31.678Z,5.40
2022-09-05T10:21:25.090Z,4.53
2022-09-05T10:24:25.098Z,3.80
2022-09-05T10:27:10.452Z,4.53
2022-09-05T10:30:06.451Z,3.90
2022-09-05T10:35:11.262Z,4.45
2022-09-05T10:35:37.668Z,4.35
2022-09-05T10:38:12.207Z,4.30
2022-09-05T10:41:20.310Z,4.40
2022-09-05T10:43:38.902Z,4.20
2022-09-05T10:46:48.903Z,4.05
2022-09-05T10:49:14.385Z,3.50
2022-09-05T10:51:53.105Z,3.90
2022-09-05T10:54:39.046Z,3.50
2022-09-05T10:57:22.535Z,3.90
2022-09-05T11:02:18.910Z,3.70
2022-09-05T11:03:00.631Z,3.60
2022-09-05T11:05:30.929Z,4.00
2022-09-05T11:08:08.423Z,4.00
2022-09-05T11:10:38.394Z,3.30
2022-09-05T11:13:15.382Z,4.05
2022-09-05T11:16:04.333Z,4.07
2022-09-05T11:18:56.458Z,3.50
2022-09-05T11:21:33.428Z,3.50
2022-09-05T11:24:10.199Z,3.83
2022-09-05T11:26:43.307Z,3.45
2022-09-05T11:29:23.481Z,3.22
2022-09-05T11:37:59.626Z,3.10
2022-09-05T11:39:50.924Z,3.20
2022-09-05T11:39:56.070Z,3.13
2022-09-05T11:41:48.901Z,3.17
2022-09-05T11:44:27.989Z,3.58
2022-09-05T11:47:29.376Z,3.80
2022-09-05T11:50:31.361Z,3.33
2022-09-05T11:53:22.358Z,3.10
2022-09-05T11:56:09.729Z,3.65
2022-09-05T11:59:15.392Z,3.47
2022-09-05T12:02:24.826Z,3.45
2022-09-05T12:05:48.291Z,3.22
2022-09-05T12:08:08.236Z,3.30
2022-09-05T12:10:48.425Z,3.78
2022-09-05T12:13:35.198Z,3.40
2022-09-05T12:16:18.485Z,3.25
2022-09-05T12:19:07.542Z,3.25
2022-09-05T12:22:08.858Z,3.25
2022-09-05T12:25:35.257Z,3.03
2022-09-05T12:28:00.016Z,3.17
2022-09-05T12:36:05.372Z,2.60
2022-09-05T12:40:54.590Z,3.30
2022-09-05T12:41:33.997Z,2.67
2022-09-05T12:42:09.753Z,2.85
2022-09-05T12:42:28.162Z,2.92
2022-09-05T12:45:10.315Z,2.97
2022-09-05T12:47:59.065Z,3.50
2022-09-05T12:50:35.506Z,3.10
2022-09-05T12:53:07.959Z,3.17
2022-09-05T12:55:40.805Z,3.00
2022-09-05T13:02:55.443Z,3.10
2022-09-05T13:03:12.524Z,3.00
2022-09-05T13:04:22.623Z,3.42
2022-09-05T13:07:00.983Z,3.10
2022-09-05T13:11:32.231Z,2.95
2022-09-05T13:15:02.507Z,2.97
2022-09-05T13:15:23.583Z,2.72
2022-09-05T13:17:59.320Z,2.63
2022-09-05T13:20:34.825Z,3.08
2022-09-05T13:23:11.119Z,3.05
2022-09-05T13:25:42.618Z,3.25
2022-09-05T13:28:14.104Z,2.92
2022-09-05T13:35:04.011Z,2.50
2022-09-05T13:38:05.950Z,2.95
2022-09-05T13:38:10.406Z,2.58
2022-09-05T13:39:28.153Z,2.65
2022-09-05T13:41:59.405Z,3.03
2022-09-05T13:44:30.014Z,2.83
2022-09-05T13:47:09.045Z,2.65
2022-09-05T13:50:07.931Z,2.78
2022-09-05T13:52:40.373Z,2.50
2022-09-05T13:55:22.685Z,2.67
2022-09-05T13:57:55.913Z,2.78
2022-09-05T14:01:14.937Z,2.58
2022-09-05T14:07:45.108Z,3.25
2022-09-05T14:10:48.939Z,2.50
2022-09-05T14:13:21.051Z,2.72
2022-09-05T14:15:55.442Z,3.25
2022-09-05T14:18:26.319Z,2.60
2022-09-05T14:21:17.076Z,3.28
2022-09-05T14:23:53.819Z,2.78
2022-09-05T14:26:30.435Z,3.03
2022-09-05T14:29:14.011Z,3.22
2022-09-05T14:37:35.439Z,2.88
2022-09-05T14:37:48.280Z,3.03
2022-09-05T14:38:09.267Z,3.03
2022-09-05T14:41:15.960Z,2.65
2022-09-05T14:44:16.707Z,3.45
2022-09-05T14:46:58.061Z,2.80
2022-09-05T14:49:43.010Z,2.70
2022-09-05T14:52:16.306Z,2.80
2022-09-05T15:02:39.817Z,2.75
2022-09-05T15:02:52.181Z,2.88
2022-09-05T15:06:32.718Z,2.70
2022-09-05T15:12:17.666Z,2.80
2022-09-05T15:12:21.216Z,2.90
2022-09-05T15:14:45.210Z,2.97
2022-09-05T15:17:22.496Z,3.00
2022-09-05T15:20:05.253Z,2.60
2022-09-05T15:22:35.510Z,2.80
2022-09-05T15:25:16.853Z,3.22
2022-09-05T15:27:47.956Z,2.97
2022-09-05T15:30:18.965Z,2.60
2022-09-05T15:32:50.573Z,2.92
2022-09-05T15:35:36.367Z,2.90
2022-09-05T15:38:27.066Z,2.58
2022-09-05T15:41:19.530Z,3.00
2022-09-05T15:43:59.658Z,2.72
2022-09-05T15:46:38.702Z,2.95
2022-09-05T15:49:12.227Z,2.70
2022-09-05T15:51:47.128Z,3.53
2022-09-05T15:54:26.996Z,2.92
2022-09-05T15:57:17.342Z,2.65
2022-09-05T15:59:51.917Z,3.28
2022-09-05T16:02:22.560Z,2.35
2022-09-05T16:10:26.903Z,2.90
2022-09-05T16:10:39.235Z,2.95
2022-09-05T16:13:36.779Z,3.10
2022-09-05T16:23:13.583Z,2.95
2022-09-05T16:23:24.301Z,2.85
2022-09-05T16:23:33.320Z,3.10
2022-09-05T16:24:59.882Z,2.78
2022-09-05T16:27:44.017Z,3.10
2022-09-05T16:30:15.570Z,3.38
2022-09-05T16:32:46.526Z,2.95
2022-09-05T16:35:24.985Z,3.70
2022-09-05T16:37:58.824Z,3.00
2022-09-05T16:40:30.485Z,3.60
2022-09-05T16:43:03.370Z,4.00
2022-09-05T16:45:36.113Z,3.85
2022-09-05T16:48:17.838Z,3.20
2022-09-05T16:50:50.265Z,2.65
2022-09-05T16:53:32.610Z,3.25
2022-09-05T16:56:05.328Z,3.35
2022-09-05T16:58:36.253Z,3.28
2022-09-05T17:01:31.191Z,3.10
2022-09-05T17:04:08.531Z,2.85
2022-09-05T17:06:45.947Z,4.38
2022-09-05T17:09:21.912Z,3.97
2022-09-05T17:12:00.596Z,3.55
2022-09-05T17:14:34.996Z,3.22
2022-09-05T17:17:19.681Z,2.90
2022-09-05T17:20:07.119Z,2.83
2022-09-05T17:25:04.064Z,3.10
2022-09-05T17:29:28.939Z,2.72
2022-09-05T17:29:30.092Z,2.88
2022-09-05T17:31:57.280Z,3.00
2022-09-05T17:34:41.736Z,3.28
2022-09-05T17:37:25.943Z,2.80
2022-09-05T17:40:02.788Z,2.85
2022-09-05T17:42:42.528Z,2.72
2022-09-05T17:45:18.115Z,2.85
2022-09-05T17:47:51.972Z,2.67
2022-09-05T17:50:43.777Z,3.42
2022-09-05T17:53:26.536Z,3.72
2022-09-05T17:56:13.855Z,2.90
2022-09-05T17:59:04.166Z,3.00
2022-09-05T18:01:32.605Z,3.40
2022-09-05T18:04:08.544Z,2.90
2022-09-05T18:07:00.563Z,3.60
2022-09-05T18:10:12.515Z,4.38
2022-09-05T18:13:13.054Z,2.50
2022-09-05T18:16:10.519Z,2.83
2022-09-05T18:19:28.177Z,2.80
2022-09-05T18:21:48.250Z,3.00
2022-09-05T18:24:24.252Z,3.42
2022-09-05T18:27:28.144Z,3.97
2022-09-05T18:29:58.550Z,3.28
2022-09-05T18:32:42.428Z,2.70
2022-09-05T18:35:36.926Z,2.75
2022-09-05T18:38:29.703Z,3.15
2022-09-05T18:41:13.741Z,3.05
2022-09-05T18:44:13.019Z,2.72
2022-09-05T18:46:43.930Z,2.80
2022-09-05T18:50:24.935Z,2.70
2022-09-05T18:52:08.460Z,2.85
2022-09-05T18:54:42.036Z,2.90
2022-09-05T18:57:26.926Z,2.92
2022-09-05T19:00:01.058Z,2.85
2022-09-05T19:02:51.487Z,2.88
2022-09-05T19:05:35.313Z,2.83
2022-09-05T19:08:15.564Z,2.75
2022-09-05T19:10:59.315Z,3.17
2022-09-05T19:13:32.128Z,4.63
2022-09-05T19:16:42.196Z,3.58
2022-09-05T19:19:10.116Z,4.18
2022-09-05T19:21:41.557Z,3.70
2022-09-05T19:24:12.288Z,3.17
2022-09-05T19:26:41.175Z,2.85
2022-09-05T19:36:57.862Z,2.90
2022-09-05T19:36:59.857Z,3.20
2022-09-05T19:37:03.783Z,3.08
2022-09-05T19:37:50.131Z,2.72
2022-09-05T19:44:51.923Z,2.58
2022-09-05T19:47:38.546Z,2.78
2022-09-05T19:47:44.709Z,2.88
2022-09-05T19:49:07.994Z,3.17
2022-09-05T19:51:36.303Z,3.08
2022-09-05T19:54:05.846Z,2.90
2022-09-05T19:56:38.464Z,3.40
2022-09-05T19:59:17.565Z,3.58
2022-09-05T20:01:50.636Z,3.35
2022-09-05T20:04:20.954Z,3.20
2022-09-05T20:06:50.469Z,2.95
2022-09-05T20:09:30.507Z,3.17
2022-09-05T20:12:00.006Z,2.72
2022-09-05T20:14:31.784Z,3.35
2022-09-05T20:17:17.876Z,3.00
2022-09-05T20:19:47.916Z,3.30
2022-09-05T20:22:47.871Z,3.28
2022-09-05T20:25:19.855Z,3.78
2022-09-05T20:28:09.557Z,3.80
2022-09-05T20:30:42.559Z,3.25
2022-09-05T20:33:18.967Z,3.20
2022-09-05T20:41:06.892Z,3.67
2022-09-05T20:43:18.922Z,3.03
2022-09-05T20:43:19.343Z,3.10
2022-09-05T20:44:22.712Z,3.22
2022-09-05T20:53:11.084Z,3.05
2022-09-05T20:54:14.955Z,3.40
2022-09-05T20:54:17.371Z,3.50
2022-09-05T20:55:38.866Z,3.20
2022-09-05T20:58:10.645Z,2.95
2022-09-05T21:00:42.166Z,3.35
2022-09-05T21:03:32.267Z,3.10
2022-09-05T21:06:11.648Z,2.95
2022-09-05T21:08:40.722Z,3.20
2022-09-05T21:11:08.817Z,3.35
2022-09-05T21:13:48.806Z,3.53
2022-09-05T21:16:23.367Z,2.85
2022-09-05T21:18:52.629Z,3.10
2022-09-05T21:21:28.521Z,2.95
2022-09-05T21:24:15.929Z,3.00
2022-09-05T21:26:47.303Z,2.78
2022-09-05T21:29:17.512Z,2.95
2022-09-05T21:31:47.659Z,2.90
2022-09-05T21:34:25.565Z,2.50
2022-09-05T21:37:06.334Z,3.08
2022-09-05T21:39:39.991Z,2.50
2022-09-05T21:42:35.646Z,2.72
2022-09-05T21:47:43.333Z,2.67
2022-09-05T21:47:52.157Z,2.78
2022-09-05T21:50:30.725Z,2.65
2022-09-05T21:54:01.678Z,2.88
2022-09-05T21:59:20.624Z,2.15
2022-09-05T21:59:33.205Z,2.33
2022-09-05T22:01:37.491Z,2.25
2022-09-05T22:04:19.025Z,2.55
2022-09-05T22:06:48.171Z,2.28
2022-09-05T22:09:17.018Z,2.40
2022-09-05T22:11:50.479Z,2.17
2022-09-05T22:14:18.855Z,2.22
2022-09-05T22:16:48.376Z,2.20
2022-09-05T22:19:22.709Z,2.33
2022-09-05T22:21:53.307Z,2.10
2022-09-05T22:24:22.392Z,2.47
2022-09-05T22:27:12.323Z,1.90
2022-09-05T22:29:41.041Z,1.85
2022-09-05T22:32:08.977Z,1.83
2022-09-05T22:34:36.685Z,1.73
2022-09-05T22:37:04.269Z,1.83
2022-09-05T22:39:36.932Z,1.92
2022-09-05T22:42:10.746Z,1.70
2022-09-05T22:44:40.032Z,1.60
2022-09-05T22:47:08.734Z,1.60
2022-09-05T22:49:37.063Z,1.75
2022-09-05T22:52:05.581Z,1.60
2022-09-05T22:54:33.527Z,1.95
2022-09-05T22:57:01.138Z,1.88
2022-09-05T22:59:30.179Z,1.40
2022-09-05T23:01:57.801Z,1.40
2022-09-05T23:04:25.895Z,1.42
2022-09-05T23:06:53.692Z,1.60
2022-09-05T23:09:21.493Z,1.80
2022-09-05T23:11:49.216Z,1.50
2022-09-05T23:14:16.856Z,1.88
2022-09-05T23:16:45.797Z,2.13
2022-09-05T23:19:13.681Z,1.60
2022-09-05T23:21:41.326Z,1.80
2022-09-05T23:24:09.046Z,1.48
2022-09-05T23:26:36.761Z,1.60
2022-09-05T23:29:04.629Z,1.77
2022-09-05T23:31:40.085Z,1.88
2022-09-05T23:34:09.043Z,1.35
2022-09-05T23:36:36.731Z,1.40
2022-09-05T23:39:04.692Z,1.80
2022-09-05T23:41:32.508Z,1.65
2022-09-05T23:44:00.138Z,1.30
2022-09-05T23:46:27.844Z,1.35
2022-09-05T23:48:55.525Z,1.58
2022-09-05T23:51:24.451Z,1.60
2022-09-05T23:53:52.208Z,1.50
2022-09-05T23:56:19.842Z,1.38
2022-09-05T23:58:47.523Z,1.60
